CheckWX is a tool to help pilots better visualize weather data.  It is not intended as a substitute for an official pre-flight weather briefing.

04:51:24 UTC

KASD TAF
Slidell Airport
Slidell, Louisiana, USA
KASD 222332Z 2300/2324 00000KT P6SM FEW250 FM231600 15007KT P6SM FEW250

Mar-23@
00:00 UTC

Mar-23 @ 00:00 UTC

Mar-23@
16:00 UTC

Mar-23 @ 16:00 UTC

KASD 222332Z 2300/2324 00000KT P6SM FEW250
Cloud Levels
  • Few at 25,000' AGL

Mar-23@
16:00 UTC

Mar-23 @ 16:00 UTC

Mar-24@
00:00 UTC

Mar-24 @ 00:00 UTC

FM231600 15007KT P6SM FEW250

From

From Standard forecast or significant change

Wind
  • 150° at 7 KTS
Cloud Levels
  • Few at 25,000' AGL